Аэропорт
Алматы (UAAA)

 UAAA / ALA
ЗЦ Центральная Азия
Алматы (UAAA)
Алматы (UAAA)
 43.35210, 77.04050  / 2234 ft

 UAAA 150930Z 01004MPS 330V050 9999 FEW050 SCT200 32/02 Q1007 R05R/CLRD65 NOSIG
 TAF UAAA 150500Z 1506/1606 04003G08MPS 9999 SCT050CB SCT100 TX32/1509Z TN16/1601Z TEMPO 1506/1514 34003G08MPS BECMG 1515/1516 15003G08MPS TEMPO 1515/1524 20003MPS
UAAA Jepp 20-06, UAAA Lido 20-06
показать схемы
Название сценария Тип сценария Flight Simulator 9 Flight Simulator X Prepar3D v2 Prepar3D v3 Prepar3D v4 Prepar3D v5 xPlane
Recommended scenery for FS9 бесплатный
Recommended scenery for FSX бесплатный
UAAA 2020 бесплатный
UAAA 2020 бесплатный


2020 © VATRUS division (Privacy Policy)